sensor_id;sensor_type;location;lat;lon;timestamp;P1;durP1;ratioP1;P2;durP2;ratioP2
2404;SDS011;1213;43.206;27.922;2023-04-25T00:00:30;6.40;;;4.30;;
2404;SDS011;1213;43.206;27.922;2023-04-25T00:02:55;5.37;;;3.80;;
2404;SDS011;1213;43.206;27.922;2023-04-25T00:05:21;5.90;;;3.40;;
2404;SDS011;1213;43.206;27.922;2023-04-25T00:07:48;4.47;;;3.30;;
2404;SDS011;1213;43.206;27.922;2023-04-25T00:10:13;5.07;;;3.90;;
2404;SDS011;1213;43.206;27.922;2023-04-25T00:12:39;5.63;;;3.83;;
2404;SDS011;1213;43.206;27.922;2023-04-25T00:15:05;12.47;;;4.37;;
2404;SDS011;1213;43.206;27.922;2023-04-25T00:17:31;9.87;;;4.17;;
2404;SDS011;1213;43.206;27.922;2023-04-25T00:19:56;5.13;;;3.97;;
2404;SDS011;1213;43.206;27.922;2023-04-25T00:22:23;6.20;;;4.03;;
2404;SDS011;1213;43.206;27.922;2023-04-25T00:24:48;7.33;;;3.60;;
2404;SDS011;1213;43.206;27.922;2023-04-25T00:27:13;4.20;;;3.80;;
2404;SDS011;1213;43.206;27.922;2023-04-25T00:29:39;4.80;;;3.30;;
2404;SDS011;1213;43.206;27.922;2023-04-25T00:32:04;7.57;;;4.10;;
2404;SDS011;1213;43.206;27.922;2023-04-25T00:34:29;8.20;;;3.97;;
2404;SDS011;1213;43.206;27.922;2023-04-25T00:36:55;5.63;;;3.80;;
2404;SDS011;1213;43.206;27.922;2023-04-25T00:39:20;9.33;;;3.70;;
2404;SDS011;1213;43.206;27.922;2023-04-25T00:41:45;5.60;;;4.17;;
2404;SDS011;1213;43.206;27.922;2023-04-25T00:44:11;4.53;;;3.77;;
2404;SDS011;1213;43.206;27.922;2023-04-25T00:46:36;10.97;;;4.17;;
2404;SDS011;1213;43.206;27.922;2023-04-25T00:49:02;4.23;;;3.77;;
2404;SDS011;1213;43.206;27.922;2023-04-25T00:51:29;13.90;;;4.37;;
2404;SDS011;1213;43.206;27.922;2023-04-25T00:53:55;8.53;;;4.70;;
2404;SDS011;1213;43.206;27.922;2023-04-25T00:56:21;11.33;;;3.50;;
2404;SDS011;1213;43.206;27.922;2023-04-25T00:58:46;6.13;;;3.60;;
2404;SDS011;1213;43.206;27.922;2023-04-25T01:01:12;7.47;;;4.07;;
2404;SDS011;1213;43.206;27.922;2023-04-25T01:03:38;4.97;;;3.50;;
2404;SDS011;1213;43.206;27.922;2023-04-25T01:06:10;6.30;;;4.03;;
2404;SDS011;1213;43.206;27.922;2023-04-25T01:08:37;4.77;;;4.20;;
2404;SDS011;1213;43.206;27.922;2023-04-25T01:11:02;4.93;;;4.13;;
2404;SDS011;1213;43.206;27.922;2023-04-25T01:13:27;22.83;;;4.73;;
2404;SDS011;1213;43.206;27.922;2023-04-25T01:15:53;10.63;;;4.00;;
2404;SDS011;1213;43.206;27.922;2023-04-25T01:18:18;11.50;;;4.20;;
2404;SDS011;1213;43.206;27.922;2023-04-25T01:20:44;6.00;;;3.40;;
2404;SDS011;1213;43.206;27.922;2023-04-25T01:23:10;12.43;;;4.37;;
2404;SDS011;1213;43.206;27.922;2023-04-25T01:25:35;7.97;;;3.40;;
2404;SDS011;1213;43.206;27.922;2023-04-25T01:28:01;8.03;;;4.00;;
2404;SDS011;1213;43.206;27.922;2023-04-25T01:30:26;8.63;;;4.40;;
2404;SDS011;1213;43.206;27.922;2023-04-25T01:32:53;11.83;;;4.47;;
2404;SDS011;1213;43.206;27.922;2023-04-25T01:35:19;4.40;;;3.77;;
2404;SDS011;1213;43.206;27.922;2023-04-25T01:37:45;4.40;;;3.90;;
2404;SDS011;1213;43.206;27.922;2023-04-25T01:40:11;3.57;;;3.30;;
2404;SDS011;1213;43.206;27.922;2023-04-25T01:42:37;7.30;;;3.80;;
2404;SDS011;1213;43.206;27.922;2023-04-25T01:45:03;5.10;;;3.67;;
2404;SDS011;1213;43.206;27.922;2023-04-25T01:47:29;6.50;;;3.70;;
2404;SDS011;1213;43.206;27.922;2023-04-25T01:49:54;9.40;;;4.70;;
2404;SDS011;1213;43.206;27.922;2023-04-25T01:52:20;4.43;;;3.40;;
2404;SDS011;1213;43.206;27.922;2023-04-25T01:54:45;8.20;;;3.70;;
2404;SDS011;1213;43.206;27.922;2023-04-25T01:57:11;5.13;;;4.20;;
2404;SDS011;1213;43.206;27.922;2023-04-25T01:59:36;7.23;;;3.90;;
2404;SDS011;1213;43.206;27.922;2023-04-25T02:02:02;9.43;;;3.70;;
2404;SDS011;1213;43.206;27.922;2023-04-25T02:04:29;5.50;;;4.07;;
2404;SDS011;1213;43.206;27.922;2023-04-25T02:06:54;6.97;;;3.87;;
2404;SDS011;1213;43.206;27.922;2023-04-25T02:09:19;14.07;;;4.23;;
2404;SDS011;1213;43.206;27.922;2023-04-25T02:11:45;5.00;;;4.20;;
2404;SDS011;1213;43.206;27.922;2023-04-25T02:14:10;3.83;;;3.43;;
2404;SDS011;1213;43.206;27.922;2023-04-25T02:16:35;4.30;;;3.13;;
2404;SDS011;1213;43.206;27.922;2023-04-25T02:19:01;5.13;;;3.47;;
2404;SDS011;1213;43.206;27.922;2023-04-25T02:21:26;5.53;;;3.90;;
2404;SDS011;1213;43.206;27.922;2023-04-25T02:23:51;8.50;;;3.90;;
2404;SDS011;1213;43.206;27.922;2023-04-25T02:26:17;6.03;;;3.40;;
2404;SDS011;1213;43.206;27.922;2023-04-25T02:28:42;7.23;;;3.80;;
2404;SDS011;1213;43.206;27.922;2023-04-25T02:31:08;11.10;;;4.37;;
2404;SDS011;1213;43.206;27.922;2023-04-25T02:33:33;11.10;;;4.20;;
2404;SDS011;1213;43.206;27.922;2023-04-25T02:35:59;7.80;;;3.50;;
2404;SDS011;1213;43.206;27.922;2023-04-25T02:38:24;8.67;;;4.10;;
2404;SDS011;1213;43.206;27.922;2023-04-25T02:40:50;5.40;;;4.13;;
2404;SDS011;1213;43.206;27.922;2023-04-25T02:43:15;6.63;;;4.37;;
2404;SDS011;1213;43.206;27.922;2023-04-25T02:45:41;6.67;;;4.60;;
2404;SDS011;1213;43.206;27.922;2023-04-25T02:48:06;10.43;;;4.57;;
2404;SDS011;1213;43.206;27.922;2023-04-25T02:50:31;4.17;;;3.77;;
2404;SDS011;1213;43.206;27.922;2023-04-25T02:52:57;5.73;;;5.00;;
2404;SDS011;1213;43.206;27.922;2023-04-25T02:55:22;5.07;;;4.20;;
2404;SDS011;1213;43.206;27.922;2023-04-25T02:57:47;9.23;;;4.30;;
2404;SDS011;1213;43.206;27.922;2023-04-25T03:00:13;17.00;;;5.50;;
2404;SDS011;1213;43.206;27.922;2023-04-25T03:02:39;7.03;;;3.70;;
2404;SDS011;1213;43.206;27.922;2023-04-25T03:05:04;4.33;;;3.57;;
2404;SDS011;1213;43.206;27.922;2023-04-25T03:07:31;7.10;;;5.40;;
2404;SDS011;1213;43.206;27.922;2023-04-25T03:09:56;10.30;;;4.97;;
2404;SDS011;1213;43.206;27.922;2023-04-25T03:12:21;11.33;;;4.70;;
2404;SDS011;1213;43.206;27.922;2023-04-25T03:14:47;6.23;;;4.23;;
2404;SDS011;1213;43.206;27.922;2023-04-25T03:17:12;12.63;;;4.50;;
2404;SDS011;1213;43.206;27.922;2023-04-25T03:19:37;9.40;;;4.37;;
2404;SDS011;1213;43.206;27.922;2023-04-25T03:22:02;9.13;;;5.00;;
2404;SDS011;1213;43.206;27.922;2023-04-25T03:24:28;10.80;;;5.90;;
2404;SDS011;1213;43.206;27.922;2023-04-25T03:26:53;7.17;;;4.20;;
2404;SDS011;1213;43.206;27.922;2023-04-25T03:29:18;6.77;;;4.30;;
2404;SDS011;1213;43.206;27.922;2023-04-25T03:31:44;7.87;;;4.53;;
2404;SDS011;1213;43.206;27.922;2023-04-25T03:34:09;10.90;;;4.30;;
2404;SDS011;1213;43.206;27.922;2023-04-25T03:36:34;10.50;;;4.50;;
2404;SDS011;1213;43.206;27.922;2023-04-25T03:39:00;8.13;;;4.47;;
2404;SDS011;1213;43.206;27.922;2023-04-25T03:41:25;7.97;;;3.60;;
2404;SDS011;1213;43.206;27.922;2023-04-25T03:43:50;5.17;;;3.90;;
2404;SDS011;1213;43.206;27.922;2023-04-25T03:46:16;5.60;;;4.50;;
2404;SDS011;1213;43.206;27.922;2023-04-25T03:48:41;7.70;;;5.40;;
2404;SDS011;1213;43.206;27.922;2023-04-25T03:51:06;7.23;;;5.10;;
2404;SDS011;1213;43.206;27.922;2023-04-25T03:53:31;11.30;;;5.53;;
2404;SDS011;1213;43.206;27.922;2023-04-25T03:55:57;7.03;;;5.27;;
2404;SDS011;1213;43.206;27.922;2023-04-25T03:58:22;10.93;;;4.80;;
2404;SDS011;1213;43.206;27.922;2023-04-25T04:00:49;13.73;;;5.63;;
2404;SDS011;1213;43.206;27.922;2023-04-25T04:03:14;12.93;;;4.87;;
2404;SDS011;1213;43.206;27.922;2023-04-25T04:05:39;16.17;;;6.20;;
2404;SDS011;1213;43.206;27.922;2023-04-25T04:08:06;8.60;;;5.00;;
2404;SDS011;1213;43.206;27.922;2023-04-25T04:10:32;6.77;;;4.10;;
2404;SDS011;1213;43.206;27.922;2023-04-25T04:12:57;6.93;;;4.70;;
2404;SDS011;1213;43.206;27.922;2023-04-25T04:15:22;7.10;;;5.40;;
2404;SDS011;1213;43.206;27.922;2023-04-25T04:17:48;12.40;;;5.70;;
2404;SDS011;1213;43.206;27.922;2023-04-25T04:20:13;9.50;;;4.87;;
2404;SDS011;1213;43.206;27.922;2023-04-25T04:22:38;12.40;;;5.80;;
2404;SDS011;1213;43.206;27.922;2023-04-25T04:25:04;7.30;;;5.17;;
2404;SDS011;1213;43.206;27.922;2023-04-25T04:27:30;15.40;;;6.30;;
2404;SDS011;1213;43.206;27.922;2023-04-25T04:29:56;10.20;;;5.53;;
2404;SDS011;1213;43.206;27.922;2023-04-25T04:32:22;7.10;;;4.17;;
2404;SDS011;1213;43.206;27.922;2023-04-25T04:34:48;8.77;;;5.37;;
2404;SDS011;1213;43.206;27.922;2023-04-25T04:37:13;8.70;;;4.10;;
2404;SDS011;1213;43.206;27.922;2023-04-25T04:39:39;12.87;;;5.60;;
2404;SDS011;1213;43.206;27.922;2023-04-25T04:42:05;14.00;;;5.70;;
2404;SDS011;1213;43.206;27.922;2023-04-25T04:44:31;6.93;;;5.33;;
2404;SDS011;1213;43.206;27.922;2023-04-25T04:47:00;12.47;;;7.40;;
2404;SDS011;1213;43.206;27.922;2023-04-25T04:49:25;18.03;;;6.03;;
2404;SDS011;1213;43.206;27.922;2023-04-25T04:51:51;16.93;;;5.67;;
2404;SDS011;1213;43.206;27.922;2023-04-25T04:54:17;8.40;;;5.33;;
2404;SDS011;1213;43.206;27.922;2023-04-25T04:56:42;10.63;;;6.27;;
2404;SDS011;1213;43.206;27.922;2023-04-25T04:59:08;6.10;;;5.50;;
2404;SDS011;1213;43.206;27.922;2023-04-25T05:01:33;6.80;;;5.13;;
2404;SDS011;1213;43.206;27.922;2023-04-25T05:04:02;6.17;;;4.47;;
2404;SDS011;1213;43.206;27.922;2023-04-25T05:06:28;14.73;;;5.70;;
2404;SDS011;1213;43.206;27.922;2023-04-25T05:08:57;5.90;;;4.57;;
2404;SDS011;1213;43.206;27.922;2023-04-25T05:11:22;7.00;;;4.60;;
2404;SDS011;1213;43.206;27.922;2023-04-25T05:13:49;8.73;;;5.60;;
2404;SDS011;1213;43.206;27.922;2023-04-25T05:16:14;5.43;;;4.87;;
2404;SDS011;1213;43.206;27.922;2023-04-25T05:18:40;16.30;;;5.90;;
2404;SDS011;1213;43.206;27.922;2023-04-25T05:21:05;9.80;;;5.90;;
2404;SDS011;1213;43.206;27.922;2023-04-25T05:23:31;13.93;;;6.70;;
2404;SDS011;1213;43.206;27.922;2023-04-25T05:25:56;7.90;;;4.67;;
2404;SDS011;1213;43.206;27.922;2023-04-25T05:28:21;9.13;;;5.53;;
2404;SDS011;1213;43.206;27.922;2023-04-25T05:30:47;13.87;;;5.00;;
2404;SDS011;1213;43.206;27.922;2023-04-25T05:33:12;9.00;;;5.50;;
2404;SDS011;1213;43.206;27.922;2023-04-25T05:35:37;6.37;;;4.33;;
2404;SDS011;1213;43.206;27.922;2023-04-25T05:38:02;8.43;;;4.77;;
2404;SDS011;1213;43.206;27.922;2023-04-25T05:40:28;12.53;;;6.10;;
2404;SDS011;1213;43.206;27.922;2023-04-25T05:42:53;19.70;;;10.23;;
2404;SDS011;1213;43.206;27.922;2023-04-25T05:45:18;6.90;;;5.07;;
2404;SDS011;1213;43.206;27.922;2023-04-25T05:47:44;9.23;;;5.93;;
2404;SDS011;1213;43.206;27.922;2023-04-25T05:50:09;13.83;;;4.93;;
2404;SDS011;1213;43.206;27.922;2023-04-25T05:52:34;5.40;;;4.83;;
2404;SDS011;1213;43.206;27.922;2023-04-25T05:55:00;7.83;;;5.40;;
2404;SDS011;1213;43.206;27.922;2023-04-25T05:57:25;6.47;;;5.13;;
2404;SDS011;1213;43.206;27.922;2023-04-25T05:59:51;6.10;;;4.93;;
2404;SDS011;1213;43.206;27.922;2023-04-25T06:02:17;7.37;;;5.50;;
2404;SDS011;1213;43.206;27.922;2023-04-25T06:04:42;10.60;;;7.70;;
2404;SDS011;1213;43.206;27.922;2023-04-25T06:07:08;9.40;;;4.73;;
2404;SDS011;1213;43.206;27.922;2023-04-25T06:09:33;14.47;;;5.40;;
2404;SDS011;1213;43.206;27.922;2023-04-25T06:11:59;7.97;;;4.47;;
2404;SDS011;1213;43.206;27.922;2023-04-25T06:14:24;6.13;;;5.40;;
2404;SDS011;1213;43.206;27.922;2023-04-25T06:16:50;9.07;;;5.00;;
2404;SDS011;1213;43.206;27.922;2023-04-25T06:19:15;9.90;;;5.93;;
2404;SDS011;1213;43.206;27.922;2023-04-25T06:21:41;16.70;;;5.10;;
2404;SDS011;1213;43.206;27.922;2023-04-25T06:24:06;8.27;;;4.47;;
2404;SDS011;1213;43.206;27.922;2023-04-25T06:26:33;9.97;;;5.90;;
2404;SDS011;1213;43.206;27.922;2023-04-25T06:28:58;19.13;;;5.23;;
2404;SDS011;1213;43.206;27.922;2023-04-25T06:31:24;17.93;;;5.23;;
2404;SDS011;1213;43.206;27.922;2023-04-25T06:33:50;9.93;;;5.43;;
2404;SDS011;1213;43.206;27.922;2023-04-25T06:36:15;13.37;;;5.20;;
2404;SDS011;1213;43.206;27.922;2023-04-25T06:38:40;8.40;;;5.37;;
2404;SDS011;1213;43.206;27.922;2023-04-25T06:41:07;6.17;;;4.63;;
2404;SDS011;1213;43.206;27.922;2023-04-25T06:43:32;9.00;;;4.40;;
2404;SDS011;1213;43.206;27.922;2023-04-25T06:45:59;9.87;;;5.10;;
2404;SDS011;1213;43.206;27.922;2023-04-25T06:48:26;4.77;;;4.30;;
2404;SDS011;1213;43.206;27.922;2023-04-25T06:50:51;12.20;;;5.70;;
2404;SDS011;1213;43.206;27.922;2023-04-25T06:53:16;7.10;;;5.00;;
2404;SDS011;1213;43.206;27.922;2023-04-25T06:55:42;8.00;;;5.13;;
2404;SDS011;1213;43.206;27.922;2023-04-25T06:58:07;18.20;;;5.00;;
2404;SDS011;1213;43.206;27.922;2023-04-25T07:00:33;11.03;;;5.00;;
2404;SDS011;1213;43.206;27.922;2023-04-25T07:02:58;7.10;;;4.60;;
2404;SDS011;1213;43.206;27.922;2023-04-25T07:05:23;7.90;;;4.97;;
2404;SDS011;1213;43.206;27.922;2023-04-25T07:07:50;11.87;;;5.80;;
2404;SDS011;1213;43.206;27.922;2023-04-25T07:10:15;5.87;;;4.97;;
2404;SDS011;1213;43.206;27.922;2023-04-25T07:12:41;9.50;;;5.43;;
2404;SDS011;1213;43.206;27.922;2023-04-25T07:15:06;7.70;;;4.57;;
2404;SDS011;1213;43.206;27.922;2023-04-25T07:17:33;7.73;;;4.80;;
2404;SDS011;1213;43.206;27.922;2023-04-25T07:19:58;11.60;;;5.93;;
2404;SDS011;1213;43.206;27.922;2023-04-25T07:22:24;10.43;;;4.67;;
2404;SDS011;1213;43.206;27.922;2023-04-25T07:24:51;6.10;;;4.50;;
2404;SDS011;1213;43.206;27.922;2023-04-25T07:27:18;10.05;;;6.38;;
2404;SDS011;1213;43.206;27.922;2023-04-25T07:29:43;6.73;;;4.40;;
2404;SDS011;1213;43.206;27.922;2023-04-25T07:32:08;6.17;;;5.40;;
2404;SDS011;1213;43.206;27.922;2023-04-25T07:34:35;7.50;;;5.30;;
2404;SDS011;1213;43.206;27.922;2023-04-25T07:37:02;8.33;;;6.17;;
2404;SDS011;1213;43.206;27.922;2023-04-25T07:39:27;35.40;;;18.10;;
2404;SDS011;1213;43.206;27.922;2023-04-25T07:41:53;11.50;;;7.47;;
2404;SDS011;1213;43.206;27.922;2023-04-25T07:44:18;15.93;;;7.00;;
2404;SDS011;1213;43.206;27.922;2023-04-25T07:46:43;14.07;;;7.43;;
2404;SDS011;1213;43.206;27.922;2023-04-25T07:49:10;14.03;;;6.27;;
2404;SDS011;1213;43.206;27.922;2023-04-25T07:51:36;11.27;;;6.53;;
2404;SDS011;1213;43.206;27.922;2023-04-25T07:54:01;12.75;;;8.30;;
2404;SDS011;1213;43.206;27.922;2023-04-25T07:56:27;10.77;;;7.77;;
2404;SDS011;1213;43.206;27.922;2023-04-25T07:58:52;12.77;;;7.27;;
2404;SDS011;1213;43.206;27.922;2023-04-25T08:01:17;10.90;;;6.60;;
2404;SDS011;1213;43.206;27.922;2023-04-25T08:03:43;9.40;;;6.57;;
2404;SDS011;1213;43.206;27.922;2023-04-25T08:06:09;8.70;;;5.67;;
2404;SDS011;1213;43.206;27.922;2023-04-25T08:08:34;8.30;;;6.33;;
2404;SDS011;1213;43.206;27.922;2023-04-25T08:10:59;13.00;;;6.60;;
2404;SDS011;1213;43.206;27.922;2023-04-25T08:13:25;7.43;;;5.20;;
2404;SDS011;1213;43.206;27.922;2023-04-25T08:15:50;11.27;;;8.63;;
2404;SDS011;1213;43.206;27.922;2023-04-25T08:18:16;9.57;;;6.40;;
2404;SDS011;1213;43.206;27.922;2023-04-25T08:20:41;9.83;;;6.50;;
2404;SDS011;1213;43.206;27.922;2023-04-25T08:23:06;8.50;;;6.30;;
2404;SDS011;1213;43.206;27.922;2023-04-25T08:25:32;7.60;;;6.40;;
2404;SDS011;1213;43.206;27.922;2023-04-25T08:27:57;10.60;;;5.67;;
2404;SDS011;1213;43.206;27.922;2023-04-25T08:30:24;11.47;;;7.97;;
2404;SDS011;1213;43.206;27.922;2023-04-25T08:32:52;5.63;;;5.13;;
2404;SDS011;1213;43.206;27.922;2023-04-25T08:35:17;8.67;;;6.10;;
2404;SDS011;1213;43.206;27.922;2023-04-25T08:37:42;9.00;;;6.10;;
2404;SDS011;1213;43.206;27.922;2023-04-25T08:40:08;12.67;;;6.90;;
2404;SDS011;1213;43.206;27.922;2023-04-25T08:42:36;8.82;;;6.50;;
2404;SDS011;1213;43.206;27.922;2023-04-25T08:45:02;5.53;;;5.13;;
2404;SDS011;1213;43.206;27.922;2023-04-25T08:47:28;5.80;;;5.17;;
2404;SDS011;1213;43.206;27.922;2023-04-25T08:49:54;6.90;;;5.57;;
2404;SDS011;1213;43.206;27.922;2023-04-25T08:52:24;8.50;;;5.33;;
2404;SDS011;1213;43.206;27.922;2023-04-25T08:54:52;12.83;;;6.00;;
2404;SDS011;1213;43.206;27.922;2023-04-25T08:57:17;11.60;;;5.17;;
2404;SDS011;1213;43.206;27.922;2023-04-25T08:59:43;9.00;;;6.03;;
2404;SDS011;1213;43.206;27.922;2023-04-25T09:02:11;18.50;;;5.77;;
2404;SDS011;1213;43.206;27.922;2023-04-25T09:04:39;11.57;;;5.80;;
2404;SDS011;1213;43.206;27.922;2023-04-25T09:07:04;6.37;;;4.90;;
2404;SDS011;1213;43.206;27.922;2023-04-25T09:09:30;8.07;;;5.90;;
2404;SDS011;1213;43.206;27.922;2023-04-25T09:11:56;7.80;;;5.50;;
2404;SDS011;1213;43.206;27.922;2023-04-25T09:14:22;6.70;;;6.07;;
2404;SDS011;1213;43.206;27.922;2023-04-25T09:16:58;5.20;;;4.60;;
2404;SDS011;1213;43.206;27.922;2023-04-25T09:19:28;7.20;;;4.70;;
2404;SDS011;1213;43.206;27.922;2023-04-25T09:21:54;9.70;;;3.60;;
2404;SDS011;1213;43.206;27.922;2023-04-25T09:24:33;8.10;;;5.40;;
2404;SDS011;1213;43.206;27.922;2023-04-25T09:26:58;4.87;;;4.20;;
2404;SDS011;1213;43.206;27.922;2023-04-25T09:29:31;5.57;;;4.00;;
2404;SDS011;1213;43.206;27.922;2023-04-25T09:34:43;6.67;;;4.27;;
2404;SDS011;1213;43.206;27.922;2023-04-25T09:37:09;4.20;;;3.80;;
2404;SDS011;1213;43.206;27.922;2023-04-25T09:39:35;4.50;;;4.10;;
2404;SDS011;1213;43.206;27.922;2023-04-25T09:42:02;6.17;;;5.10;;
2404;SDS011;1213;43.206;27.922;2023-04-25T09:44:27;5.00;;;4.07;;
2404;SDS011;1213;43.206;27.922;2023-04-25T09:46:53;3.93;;;3.63;;
2404;SDS011;1213;43.206;27.922;2023-04-25T09:49:19;4.93;;;3.97;;
2404;SDS011;1213;43.206;27.922;2023-04-25T09:51:58;7.83;;;4.57;;
2404;SDS011;1213;43.206;27.922;2023-04-25T09:54:24;10.53;;;4.90;;
2404;SDS011;1213;43.206;27.922;2023-04-25T09:56:50;5.63;;;4.67;;
2404;SDS011;1213;43.206;27.922;2023-04-25T09:59:16;8.38;;;5.20;;
2404;SDS011;1213;43.206;27.922;2023-04-25T10:01:42;4.70;;;4.30;;
2404;SDS011;1213;43.206;27.922;2023-04-25T10:04:08;6.67;;;4.60;;
2404;SDS011;1213;43.206;27.922;2023-04-25T10:06:35;10.00;;;4.67;;
2404;SDS011;1213;43.206;27.922;2023-04-25T10:09:02;9.00;;;6.87;;
2404;SDS011;1213;43.206;27.922;2023-04-25T10:11:28;8.80;;;4.43;;
2404;SDS011;1213;43.206;27.922;2023-04-25T10:13:55;5.27;;;4.40;;
2404;SDS011;1213;43.206;27.922;2023-04-25T10:16:22;4.70;;;3.57;;
2404;SDS011;1213;43.206;27.922;2023-04-25T10:18:47;4.30;;;3.90;;
2404;SDS011;1213;43.206;27.922;2023-04-25T10:21:13;7.70;;;4.67;;
2404;SDS011;1213;43.206;27.922;2023-04-25T10:23:40;4.33;;;3.73;;
2404;SDS011;1213;43.206;27.922;2023-04-25T10:26:06;7.03;;;4.77;;
2404;SDS011;1213;43.206;27.922;2023-04-25T10:28:56;7.67;;;5.20;;
2404;SDS011;1213;43.206;27.922;2023-04-25T10:31:26;4.27;;;3.87;;
2404;SDS011;1213;43.206;27.922;2023-04-25T10:33:51;7.33;;;3.47;;
2404;SDS011;1213;43.206;27.922;2023-04-25T10:36:23;4.87;;;4.43;;
2404;SDS011;1213;43.206;27.922;2023-04-25T10:38:49;5.00;;;4.40;;
2404;SDS011;1213;43.206;27.922;2023-04-25T10:41:16;6.10;;;4.40;;
2404;SDS011;1213;43.206;27.922;2023-04-25T10:43:43;5.93;;;4.97;;
2404;SDS011;1213;43.206;27.922;2023-04-25T10:46:13;5.03;;;4.33;;
2404;SDS011;1213;43.206;27.922;2023-04-25T10:48:38;6.83;;;3.87;;
2404;SDS011;1213;43.206;27.922;2023-04-25T10:53:34;4.70;;;4.27;;
2404;SDS011;1213;43.206;27.922;2023-04-25T10:56:00;6.23;;;4.40;;
2404;SDS011;1213;43.206;27.922;2023-04-25T10:58:33;6.60;;;3.87;;
2404;SDS011;1213;43.206;27.922;2023-04-25T11:00:59;8.00;;;4.10;;
2404;SDS011;1213;43.206;27.922;2023-04-25T11:03:25;7.40;;;4.27;;
2404;SDS011;1213;43.206;27.922;2023-04-25T11:05:51;8.13;;;4.83;;
2404;SDS011;1213;43.206;27.922;2023-04-25T11:08:17;5.40;;;4.90;;
2404;SDS011;1213;43.206;27.922;2023-04-25T11:10:47;6.90;;;4.60;;
2404;SDS011;1213;43.206;27.922;2023-04-25T11:13:13;7.00;;;4.67;;
2404;SDS011;1213;43.206;27.922;2023-04-25T11:15:39;5.37;;;4.83;;
2404;SDS011;1213;43.206;27.922;2023-04-25T11:18:04;6.00;;;4.63;;
2404;SDS011;1213;43.206;27.922;2023-04-25T11:20:31;6.67;;;4.70;;
2404;SDS011;1213;43.206;27.922;2023-04-25T11:22:59;5.83;;;4.60;;
2404;SDS011;1213;43.206;27.922;2023-04-25T11:25:28;8.80;;;5.20;;
2404;SDS011;1213;43.206;27.922;2023-04-25T11:27:57;5.70;;;4.73;;
2404;SDS011;1213;43.206;27.922;2023-04-25T11:30:23;5.60;;;4.30;;
2404;SDS011;1213;43.206;27.922;2023-04-25T11:32:49;11.40;;;5.27;;
2404;SDS011;1213;43.206;27.922;2023-04-25T11:35:15;4.27;;;3.90;;
2404;SDS011;1213;43.206;27.922;2023-04-25T11:37:40;5.97;;;4.83;;
2404;SDS011;1213;43.206;27.922;2023-04-25T11:40:06;6.57;;;4.50;;
2404;SDS011;1213;43.206;27.922;2023-04-25T11:42:32;4.73;;;4.27;;
2404;SDS011;1213;43.206;27.922;2023-04-25T11:44:59;4.97;;;4.23;;
2404;SDS011;1213;43.206;27.922;2023-04-25T11:47:31;7.10;;;4.33;;
2404;SDS011;1213;43.206;27.922;2023-04-25T11:50:00;4.70;;;4.30;;
2404;SDS011;1213;43.206;27.922;2023-04-25T11:55:20;6.60;;;4.40;;
2404;SDS011;1213;43.206;27.922;2023-04-25T11:57:49;6.60;;;4.53;;
2404;SDS011;1213;43.206;27.922;2023-04-25T12:00:20;3.80;;;3.50;;
2404;SDS011;1213;43.206;27.922;2023-04-25T12:02:47;6.40;;;3.63;;
2404;SDS011;1213;43.206;27.922;2023-04-25T12:05:13;4.40;;;3.97;;
2404;SDS011;1213;43.206;27.922;2023-04-25T12:07:40;5.70;;;3.87;;
2404;SDS011;1213;43.206;27.922;2023-04-25T12:10:09;5.57;;;3.73;;
2404;SDS011;1213;43.206;27.922;2023-04-25T12:12:35;3.87;;;3.53;;
2404;SDS011;1213;43.206;27.922;2023-04-25T12:15:14;4.80;;;3.63;;
2404;SDS011;1213;43.206;27.922;2023-04-25T12:17:40;5.87;;;3.93;;
2404;SDS011;1213;43.206;27.922;2023-04-25T12:20:10;9.23;;;4.13;;
2404;SDS011;1213;43.206;27.922;2023-04-25T12:22:35;4.70;;;4.30;;
2404;SDS011;1213;43.206;27.922;2023-04-25T12:25:01;8.10;;;5.00;;
2404;SDS011;1213;43.206;27.922;2023-04-25T12:27:30;5.83;;;4.20;;
2404;SDS011;1213;43.206;27.922;2023-04-25T12:29:56;4.30;;;3.90;;
2404;SDS011;1213;43.206;27.922;2023-04-25T12:32:22;10.10;;;4.53;;
2404;SDS011;1213;43.206;27.922;2023-04-25T12:34:48;7.00;;;4.50;;
2404;SDS011;1213;43.206;27.922;2023-04-25T12:37:13;6.50;;;3.97;;
2404;SDS011;1213;43.206;27.922;2023-04-25T12:39:39;4.17;;;3.43;;
2404;SDS011;1213;43.206;27.922;2023-04-25T12:42:04;5.20;;;4.70;;
2404;SDS011;1213;43.206;27.922;2023-04-25T12:44:30;4.53;;;4.13;;
2404;SDS011;1213;43.206;27.922;2023-04-25T12:46:55;8.77;;;4.40;;
2404;SDS011;1213;43.206;27.922;2023-04-25T12:49:20;5.00;;;4.20;;
2404;SDS011;1213;43.206;27.922;2023-04-25T12:51:46;4.57;;;4.17;;
2404;SDS011;1213;43.206;27.922;2023-04-25T12:54:12;4.87;;;4.40;;
2404;SDS011;1213;43.206;27.922;2023-04-25T12:56:37;10.43;;;6.33;;
2404;SDS011;1213;43.206;27.922;2023-04-25T12:59:02;10.13;;;8.10;;
2404;SDS011;1213;43.206;27.922;2023-04-25T13:01:30;6.63;;;5.73;;
2404;SDS011;1213;43.206;27.922;2023-04-25T13:03:56;6.37;;;4.43;;
2404;SDS011;1213;43.206;27.922;2023-04-25T13:06:22;6.80;;;4.67;;
2404;SDS011;1213;43.206;27.922;2023-04-25T13:08:48;7.27;;;4.60;;
2404;SDS011;1213;43.206;27.922;2023-04-25T13:11:13;5.77;;;5.27;;
2404;SDS011;1213;43.206;27.922;2023-04-25T13:13:40;5.83;;;4.93;;
2404;SDS011;1213;43.206;27.922;2023-04-25T13:16:06;7.50;;;6.60;;
2404;SDS011;1213;43.206;27.922;2023-04-25T13:18:32;6.47;;;5.13;;
2404;SDS011;1213;43.206;27.922;2023-04-25T13:20:57;12.90;;;6.20;;
2404;SDS011;1213;43.206;27.922;2023-04-25T13:23:24;7.70;;;5.80;;
2404;SDS011;1213;43.206;27.922;2023-04-25T13:25:51;6.57;;;5.90;;
2404;SDS011;1213;43.206;27.922;2023-04-25T13:28:16;7.70;;;6.90;;
2404;SDS011;1213;43.206;27.922;2023-04-25T13:30:41;15.00;;;7.63;;
2404;SDS011;1213;43.206;27.922;2023-04-25T13:33:07;10.40;;;6.03;;
2404;SDS011;1213;43.206;27.922;2023-04-25T13:35:33;19.47;;;7.13;;
2404;SDS011;1213;43.206;27.922;2023-04-25T13:37:58;10.27;;;6.17;;
2404;SDS011;1213;43.206;27.922;2023-04-25T13:40:24;10.83;;;6.63;;
2404;SDS011;1213;43.206;27.922;2023-04-25T13:42:49;8.50;;;6.77;;
2404;SDS011;1213;43.206;27.922;2023-04-25T13:45:16;18.03;;;7.27;;
2404;SDS011;1213;43.206;27.922;2023-04-25T13:47:41;12.90;;;7.00;;
2404;SDS011;1213;43.206;27.922;2023-04-25T13:50:06;6.90;;;6.17;;
2404;SDS011;1213;43.206;27.922;2023-04-25T13:52:32;23.37;;;16.90;;
2404;SDS011;1213;43.206;27.922;2023-04-25T13:54:58;12.30;;;8.83;;
2404;SDS011;1213;43.206;27.922;2023-04-25T13:57:23;11.87;;;9.47;;
2404;SDS011;1213;43.206;27.922;2023-04-25T13:59:49;13.73;;;7.60;;
2404;SDS011;1213;43.206;27.922;2023-04-25T14:02:15;10.47;;;6.93;;
2404;SDS011;1213;43.206;27.922;2023-04-25T14:04:40;14.07;;;7.40;;
2404;SDS011;1213;43.206;27.922;2023-04-25T14:07:06;12.50;;;8.67;;
2404;SDS011;1213;43.206;27.922;2023-04-25T14:09:31;11.17;;;7.83;;
2404;SDS011;1213;43.206;27.922;2023-04-25T14:11:56;13.70;;;7.93;;
2404;SDS011;1213;43.206;27.922;2023-04-25T14:14:22;9.10;;;7.50;;
2404;SDS011;1213;43.206;27.922;2023-04-25T14:16:48;17.80;;;8.50;;
2404;SDS011;1213;43.206;27.922;2023-04-25T14:19:14;12.53;;;7.20;;
2404;SDS011;1213;43.206;27.922;2023-04-25T14:21:40;10.13;;;7.83;;
2404;SDS011;1213;43.206;27.922;2023-04-25T14:24:05;10.20;;;8.37;;
2404;SDS011;1213;43.206;27.922;2023-04-25T14:26:31;9.10;;;7.43;;
2404;SDS011;1213;43.206;27.922;2023-04-25T14:28:56;11.83;;;7.60;;
2404;SDS011;1213;43.206;27.922;2023-04-25T14:31:22;11.13;;;7.67;;
2404;SDS011;1213;43.206;27.922;2023-04-25T14:33:47;19.60;;;9.60;;
2404;SDS011;1213;43.206;27.922;2023-04-25T14:36:12;14.20;;;8.00;;
2404;SDS011;1213;43.206;27.922;2023-04-25T14:38:39;12.17;;;8.63;;
2404;SDS011;1213;43.206;27.922;2023-04-25T14:41:04;22.10;;;8.20;;
2404;SDS011;1213;43.206;27.922;2023-04-25T14:43:30;17.95;;;12.85;;
2404;SDS011;1213;43.206;27.922;2023-04-25T14:45:55;16.03;;;10.60;;
2404;SDS011;1213;43.206;27.922;2023-04-25T14:48:20;15.30;;;7.90;;
2404;SDS011;1213;43.206;27.922;2023-04-25T14:50:48;12.57;;;8.33;;
2404;SDS011;1213;43.206;27.922;2023-04-25T14:53:13;9.50;;;7.00;;
2404;SDS011;1213;43.206;27.922;2023-04-25T14:55:38;10.60;;;6.63;;
2404;SDS011;1213;43.206;27.922;2023-04-25T14:58:04;12.33;;;6.63;;